createdAt,value
2023-01-20T00:00:19.691Z,100.00
2023-01-20T00:05:22.411Z,100.00
2023-01-20T00:10:24.892Z,100.00
2023-01-20T00:15:27.534Z,100.00
2023-01-20T00:20:30.180Z,100.00
2023-01-20T00:25:35.535Z,100.00
2023-01-20T00:30:37.923Z,100.00
2023-01-20T00:35:40.695Z,100.00
2023-01-20T00:40:43.446Z,100.00
2023-01-20T00:45:45.815Z,100.00
2023-01-20T00:50:48.500Z,100.00
2023-01-20T00:55:51.092Z,100.00
2023-01-20T01:00:55.365Z,100.00
2023-01-20T01:06:09.806Z,100.00
2023-01-20T01:11:13.266Z,100.00
2023-01-20T01:16:16.631Z,100.00
2023-01-20T01:21:19.193Z,100.00
2023-01-20T01:26:21.931Z,100.00
2023-01-20T01:31:24.455Z,100.00
2023-01-20T01:36:27.005Z,100.00
2023-01-20T01:41:29.781Z,100.00
2023-01-20T01:46:32.598Z,100.00
2023-01-20T01:51:41.735Z,100.00
2023-01-20T01:56:46.457Z,100.00
2023-01-20T02:01:52.116Z,100.00
2023-01-20T02:07:09.588Z,100.00
2023-01-20T02:12:15.693Z,100.00
2023-01-20T02:17:20.932Z,100.00
2023-01-20T02:22:36.873Z,100.00
2023-01-20T02:28:00.835Z,100.00
2023-01-20T02:33:10.911Z,100.00
2023-01-20T02:38:26.045Z,100.00
2023-01-20T02:43:53.624Z,100.00
2023-01-20T02:49:01.549Z,100.00
2023-01-20T02:54:09.775Z,100.00
2023-01-20T02:59:15.447Z,100.00
2023-01-20T03:04:22.209Z,100.00
2023-01-20T03:09:30.887Z,100.00
2023-01-20T03:14:33.556Z,100.00
2023-01-20T03:19:36.750Z,100.00
2023-01-20T03:24:42.244Z,100.00
2023-01-20T03:29:44.632Z,100.00
2023-01-20T03:34:47.021Z,100.00
2023-01-20T03:39:50.161Z,100.00
2023-01-20T03:45:26.364Z,100.00
2023-01-20T03:50:46.542Z,100.00
2023-01-20T03:55:53.889Z,100.00
2023-01-20T04:00:57.813Z,100.00
2023-01-20T04:06:04.611Z,100.00
2023-01-20T04:11:08.401Z,100.00
2023-01-20T04:16:17.549Z,100.00
2023-01-20T04:21:28.310Z,100.00
2023-01-20T04:26:31.205Z,100.00
2023-01-20T04:31:36.975Z,100.00
2023-01-20T04:36:39.405Z,100.00
2023-01-20T04:41:41.848Z,100.00
2023-01-20T04:46:45.462Z,100.00
2023-01-20T04:51:47.868Z,100.00
2023-01-20T04:56:50.564Z,100.00
2023-01-20T05:01:53.103Z,100.00
2023-01-20T05:06:55.555Z,100.00
2023-01-20T05:11:58.037Z,100.00
2023-01-20T05:17:00.932Z,100.00
2023-01-20T05:22:03.447Z,100.00
2023-01-20T05:27:06.150Z,100.00
2023-01-20T05:32:08.629Z,100.00
2023-01-20T05:37:11.021Z,100.00
2023-01-20T05:42:13.457Z,100.00
2023-01-20T05:47:15.996Z,100.00
2023-01-20T05:52:18.422Z,100.00
2023-01-20T05:57:23.681Z,100.00
2023-01-20T06:02:26.199Z,100.00
2023-01-20T06:07:30.799Z,100.00
2023-01-20T06:12:33.505Z,100.00
2023-01-20T06:17:36.003Z,100.00
2023-01-20T06:22:38.426Z,100.00
2023-01-20T06:27:40.841Z,100.00
2023-01-20T06:32:43.288Z,100.00
2023-01-20T06:37:45.658Z,100.00
2023-01-20T06:42:48.175Z,100.00
2023-01-20T06:47:50.661Z,100.00
2023-01-20T06:52:54.429Z,100.00
2023-01-20T06:57:56.819Z,100.00
2023-01-20T07:02:59.400Z,100.00
2023-01-20T07:08:01.930Z,100.00
2023-01-20T07:13:04.357Z,100.00
2023-01-20T07:18:06.826Z,100.00
2023-01-20T07:23:09.185Z,100.00
2023-01-20T07:28:11.836Z,100.00
2023-01-20T07:33:14.232Z,100.00
2023-01-20T07:38:16.879Z,100.00
2023-01-20T07:43:19.319Z,100.00
2023-01-20T07:48:37.030Z,100.00
2023-01-20T07:53:41.882Z,100.00
2023-01-20T07:58:49.278Z,100.00
2023-01-20T08:03:52.309Z,100.00
2023-01-20T08:08:58.639Z,100.00
2023-01-20T08:14:01.650Z,100.00
2023-01-20T08:19:04.342Z,100.00
2023-01-20T08:24:07.155Z,100.00
2023-01-20T08:29:10.295Z,100.00
2023-01-20T08:34:13.004Z,100.00
2023-01-20T08:39:18.628Z,100.00
2023-01-20T08:44:21.485Z,100.00
2023-01-20T08:49:23.914Z,100.00
2023-01-20T08:54:26.539Z,100.00
2023-01-20T08:59:29.272Z,100.00
2023-01-20T09:04:35.838Z,100.00
2023-01-20T09:09:39.211Z,99.55
2023-01-20T09:14:41.900Z,99.32
2023-01-20T09:19:44.320Z,98.69
2023-01-20T09:24:47.003Z,96.77
2023-01-20T09:29:49.710Z,98.62
2023-01-20T09:34:52.284Z,98.32
2023-01-20T09:40:13.871Z,98.08
2023-01-20T09:45:38.740Z,96.44
2023-01-20T09:51:16.894Z,98.56
2023-01-20T09:56:24.439Z,97.57
2023-01-20T10:01:38.656Z,98.32
2023-01-20T10:07:00.046Z,98.10
2023-01-20T10:12:12.687Z,94.53
2023-01-20T10:17:23.591Z,94.35
2023-01-20T10:22:55.483Z,90.73
2023-01-20T10:28:12.215Z,92.51
2023-01-20T10:33:20.349Z,92.02
2023-01-20T10:38:34.686Z,91.56
2023-01-20T10:43:37.388Z,87.12
2023-01-20T10:49:09.669Z,83.08
2023-01-20T10:54:24.209Z,80.13
2023-01-20T10:59:45.720Z,77.83
2023-01-20T11:04:57.394Z,76.60
2023-01-20T11:10:22.201Z,74.35
2023-01-20T11:15:35.475Z,72.92
2023-01-20T11:20:38.169Z,67.54
2023-01-20T11:25:40.593Z,66.22
2023-01-20T11:30:43.133Z,62.49
2023-01-20T11:36:18.718Z,67.43
2023-01-20T11:41:25.289Z,71.27
2023-01-20T11:46:32.184Z,74.90
2023-01-20T11:51:43.878Z,78.33
2023-01-20T11:56:49.402Z,70.31
2023-01-20T12:01:55.106Z,69.10
2023-01-20T12:07:12.490Z,68.11
2023-01-20T12:12:47.441Z,68.84
2023-01-20T12:18:02.229Z,77.32
2023-01-20T12:23:32.951Z,76.65
2023-01-20T12:28:55.943Z,65.71
2023-01-20T12:34:14.992Z,53.72
2023-01-20T12:39:35.905Z,48.31
2023-01-20T12:44:57.292Z,53.04
2023-01-20T12:50:33.436Z,50.64
2023-01-20T12:55:41.588Z,56.79
2023-01-20T13:01:19.439Z,62.38
2023-01-20T13:06:28.271Z,66.41
2023-01-20T13:12:01.276Z,70.60
2023-01-20T13:17:25.955Z,73.65
2023-01-20T13:22:29.834Z,71.61
2023-01-20T13:27:38.371Z,71.38
2023-01-20T13:32:45.696Z,86.45
2023-01-20T13:37:52.135Z,76.04
2023-01-20T13:42:54.820Z,71.91
2023-01-20T13:48:08.492Z,76.62
2023-01-20T13:53:14.093Z,70.30
2023-01-20T13:58:19.488Z,67.12
2023-01-20T14:03:30.936Z,61.65
2023-01-20T14:08:48.028Z,62.49
2023-01-20T14:13:52.858Z,61.28
2023-01-20T14:18:59.599Z,64.26
2023-01-20T14:24:02.099Z,66.46
2023-01-20T14:29:04.579Z,66.03
2023-01-20T14:34:30.938Z,66.26
2023-01-20T14:39:33.558Z,66.29
2023-01-20T14:44:35.841Z,64.07
2023-01-20T14:49:41.952Z,64.63
2023-01-20T14:54:49.749Z,66.09
2023-01-20T15:00:19.467Z,65.58
2023-01-20T15:05:23.513Z,65.92
2023-01-20T15:10:25.705Z,67.48
2023-01-20T15:15:30.907Z,67.11
2023-01-20T15:20:36.029Z,67.72
2023-01-20T15:25:38.082Z,68.55
2023-01-20T15:30:40.139Z,68.24
2023-01-20T15:35:42.995Z,70.40
2023-01-20T15:40:45.104Z,70.14
2023-01-20T15:45:47.446Z,68.47
2023-01-20T15:50:49.953Z,68.38
2023-01-20T15:55:52.408Z,68.98
2023-01-20T16:00:56.787Z,69.07
2023-01-20T16:05:58.915Z,69.46
2023-01-20T16:11:01.555Z,69.39
2023-01-20T16:16:04.481Z,69.87
2023-01-20T16:21:07.329Z,69.87
2023-01-20T16:26:23.476Z,70.06
2023-01-20T16:31:27.667Z,70.54
2023-01-20T16:36:29.819Z,71.21
2023-01-20T16:41:32.308Z,73.30
2023-01-20T16:46:34.791Z,74.33
2023-01-20T16:51:36.880Z,74.09
2023-01-20T16:56:40.282Z,73.47
2023-01-20T17:01:42.427Z,74.49
2023-01-20T17:06:44.576Z,74.15
2023-01-20T17:11:47.064Z,73.86
2023-01-20T17:16:49.537Z,74.00
2023-01-20T17:21:52.263Z,73.62
2023-01-20T17:26:54.753Z,73.42
2023-01-20T17:31:57.246Z,73.90
2023-01-20T17:37:00.140Z,73.47
2023-01-20T17:42:02.889Z,73.35
2023-01-20T17:47:06.040Z,74.42
2023-01-20T17:52:08.762Z,75.30
2023-01-20T17:57:11.222Z,74.49
2023-01-20T18:02:14.530Z,74.19
2023-01-20T18:07:17.058Z,73.03
2023-01-20T18:12:21.557Z,72.72
2023-01-20T18:17:24.174Z,71.71
2023-01-20T18:22:26.929Z,70.49
2023-01-20T18:27:29.949Z,69.78
2023-01-20T18:32:32.838Z,68.59
2023-01-20T18:37:35.301Z,67.70
2023-01-20T18:42:37.717Z,67.86
2023-01-20T18:47:40.100Z,70.15
2023-01-20T18:52:43.928Z,70.26
2023-01-20T18:57:46.344Z,70.06
2023-01-20T19:02:52.251Z,70.58
2023-01-20T19:07:54.694Z,70.05
2023-01-20T19:12:57.253Z,71.34
2023-01-20T19:17:59.701Z,72.49
2023-01-20T19:23:02.471Z,73.45
2023-01-20T19:28:05.976Z,73.27
2023-01-20T19:33:12.188Z,72.98
2023-01-20T19:38:14.659Z,73.68
2023-01-20T19:43:17.061Z,73.70
2023-01-20T19:48:19.690Z,72.03
2023-01-20T19:53:22.103Z,70.41
2023-01-20T19:58:24.543Z,71.67
2023-01-20T20:03:28.314Z,70.95
2023-01-20T20:08:30.960Z,71.10
2023-01-20T20:13:33.715Z,70.11
2023-01-20T20:18:36.173Z,70.49
2023-01-20T20:23:38.602Z,69.17
2023-01-20T20:28:41.113Z,69.11
2023-01-20T20:33:45.474Z,69.52
2023-01-20T20:38:51.319Z,70.83
2023-01-20T20:43:54.721Z,70.92
2023-01-20T20:48:59.457Z,72.18
2023-01-20T20:54:03.212Z,71.72
2023-01-20T20:59:05.644Z,72.58
2023-01-20T21:04:08.231Z,72.72
2023-01-20T21:09:10.952Z,73.72
2023-01-20T21:14:13.556Z,74.39
2023-01-20T21:19:16.424Z,75.29
2023-01-20T21:24:19.104Z,76.34
2023-01-20T21:29:21.644Z,75.16
2023-01-20T21:34:24.121Z,74.68
2023-01-20T21:39:26.578Z,74.01
2023-01-20T21:44:29.043Z,73.89
2023-01-20T21:49:50.216Z,74.15
2023-01-20T21:54:52.637Z,75.07
2023-01-20T21:59:55.757Z,74.10
2023-01-20T22:04:58.287Z,73.21
2023-01-20T22:10:01.059Z,74.52
2023-01-20T22:15:04.466Z,73.56
2023-01-20T22:20:07.496Z,74.20
2023-01-20T22:25:10.277Z,74.63
2023-01-20T22:30:13.084Z,74.31
2023-01-20T22:35:15.694Z,73.33
2023-01-20T22:40:18.402Z,72.71
2023-01-20T22:45:21.006Z,72.71
2023-01-20T22:50:23.770Z,72.40
2023-01-20T22:55:26.687Z,72.71
2023-01-20T23:00:29.138Z,72.78
2023-01-20T23:05:32.036Z,72.04
2023-01-20T23:10:46.752Z,72.40
2023-01-20T23:15:51.431Z,72.09
2023-01-20T23:20:55.686Z,71.41
2023-01-20T23:26:13.240Z,72.41
2023-01-20T23:31:17.201Z,72.94
2023-01-20T23:36:22.696Z,73.05
2023-01-20T23:41:25.657Z,73.01
2023-01-20T23:46:28.132Z,73.09
2023-01-20T23:51:30.836Z,73.11
2023-01-20T23:56:33.776Z,73.06
